createdAt,value
2022-12-26T00:01:48.345Z,3.78
2022-12-26T00:04:48.749Z,3.65
2022-12-26T00:07:04.627Z,3.35
2022-12-26T00:09:34.183Z,2.80
2022-12-26T00:12:01.470Z,2.65
2022-12-26T00:14:28.802Z,2.63
2022-12-26T00:16:56.170Z,2.55
2022-12-26T00:19:23.686Z,2.75
2022-12-26T00:21:51.717Z,2.40
2022-12-26T00:24:19.530Z,2.50
2022-12-26T00:26:47.022Z,2.33
2022-12-26T00:29:14.531Z,2.38
2022-12-26T00:31:42.068Z,2.42
2022-12-26T00:34:12.621Z,2.65
2022-12-26T00:36:40.520Z,3.30
2022-12-26T00:39:09.161Z,3.35
2022-12-26T00:41:36.687Z,2.90
2022-12-26T00:44:04.543Z,2.63
2022-12-26T00:46:32.403Z,2.80
2022-12-26T00:49:00.615Z,2.47
2022-12-26T00:51:28.089Z,2.47
2022-12-26T00:53:58.184Z,2.45
2022-12-26T00:56:25.665Z,2.22
2022-12-26T00:58:53.462Z,2.40
2022-12-26T01:01:23.741Z,2.40
2022-12-26T01:03:52.349Z,2.00
2022-12-26T01:06:19.927Z,2.33
2022-12-26T01:08:47.436Z,2.63
2022-12-26T01:11:36.888Z,2.78
2022-12-26T01:14:05.069Z,2.00
2022-12-26T01:16:32.786Z,2.20
2022-12-26T01:19:01.953Z,2.10
2022-12-26T01:21:29.548Z,2.17
2022-12-26T01:23:57.333Z,2.55
2022-12-26T01:26:25.016Z,2.10
2022-12-26T01:28:54.310Z,1.98
2022-12-26T01:31:23.065Z,1.73
2022-12-26T01:33:50.559Z,2.13
2022-12-26T01:36:19.025Z,2.15
2022-12-26T01:38:48.994Z,2.00
2022-12-26T01:41:22.443Z,1.77
2022-12-26T01:44:00.165Z,2.05
2022-12-26T01:46:42.690Z,1.80
2022-12-26T01:49:26.126Z,1.70
2022-12-26T01:52:04.046Z,1.80
2022-12-26T01:54:37.678Z,1.70
2022-12-26T01:57:16.621Z,1.65
2022-12-26T01:59:46.422Z,1.58
2022-12-26T02:02:15.003Z,1.70
2022-12-26T02:05:08.461Z,1.75
2022-12-26T02:07:39.968Z,1.65
2022-12-26T02:10:15.149Z,1.05
2022-12-26T02:12:42.602Z,1.38
2022-12-26T02:15:14.658Z,1.75
2022-12-26T02:17:43.197Z,1.33
2022-12-26T02:20:51.999Z,1.33
2022-12-26T02:24:19.739Z,1.45
2022-12-26T02:27:22.437Z,1.52
2022-12-26T02:30:53.997Z,1.15
2022-12-26T02:34:17.474Z,1.50
2022-12-26T02:37:19.056Z,1.27
2022-12-26T02:40:08.368Z,1.20
2022-12-26T02:43:06.986Z,0.93
2022-12-26T02:46:03.524Z,1.30
2022-12-26T02:49:06.706Z,1.30
2022-12-26T02:52:39.626Z,1.02
2022-12-26T02:55:35.469Z,1.13
2022-12-26T02:58:42.019Z,1.20
2022-12-26T03:01:43.556Z,0.93
2022-12-26T03:04:35.020Z,1.20
2022-12-26T03:07:31.742Z,1.30
2022-12-26T03:10:24.458Z,1.27
2022-12-26T03:13:11.228Z,1.00
2022-12-26T03:16:20.839Z,1.15
2022-12-26T03:18:57.705Z,1.00
2022-12-26T03:21:34.331Z,1.08
2022-12-26T03:24:01.748Z,1.07
2022-12-26T03:26:43.977Z,0.93
2022-12-26T03:29:37.347Z,0.82
2022-12-26T03:32:09.905Z,1.13
2022-12-26T03:34:45.223Z,1.10
2022-12-26T03:37:57.393Z,0.93
2022-12-26T03:41:13.900Z,0.90
2022-12-26T03:44:34.528Z,0.95
2022-12-26T03:47:59.580Z,1.23
2022-12-26T03:51:02.643Z,0.93
2022-12-26T03:54:00.643Z,0.90
2022-12-26T03:56:54.588Z,0.90
2022-12-26T04:00:08.960Z,1.27
2022-12-26T04:03:04.573Z,0.98
2022-12-26T04:05:52.568Z,0.80
2022-12-26T04:08:46.814Z,0.82
2022-12-26T04:11:36.637Z,1.10
2022-12-26T04:14:24.765Z,1.00
2022-12-26T04:17:21.792Z,0.85
2022-12-26T04:20:06.036Z,1.05
2022-12-26T04:23:34.326Z,0.90
2022-12-26T04:26:43.191Z,0.80
2022-12-26T04:29:29.569Z,1.20
2022-12-26T04:32:53.885Z,0.60
2022-12-26T04:35:53.340Z,0.80
2022-12-26T04:38:49.530Z,0.77
2022-12-26T04:41:37.250Z,0.85
2022-12-26T04:44:08.035Z,0.50
2022-12-26T04:46:39.887Z,1.20
2022-12-26T04:49:31.560Z,0.82
2022-12-26T04:52:04.316Z,0.75
2022-12-26T04:54:31.926Z,0.70
2022-12-26T04:56:59.597Z,0.93
2022-12-26T04:59:28.147Z,0.63
2022-12-26T05:02:14.508Z,0.68
2022-12-26T05:05:00.775Z,0.60
2022-12-26T05:07:50.568Z,0.80
2022-12-26T05:10:22.415Z,0.75
2022-12-26T05:12:51.005Z,0.80
2022-12-26T05:15:19.022Z,0.40
2022-12-26T05:18:22.073Z,0.60
2022-12-26T05:21:08.223Z,0.70
2022-12-26T05:23:54.392Z,0.85
2022-12-26T05:26:42.619Z,0.50
2022-12-26T05:29:10.390Z,0.90
2022-12-26T05:31:38.001Z,1.13
2022-12-26T05:34:12.992Z,0.50
2022-12-26T05:36:56.791Z,0.50
2022-12-26T05:39:24.157Z,0.50
2022-12-26T05:41:51.905Z,0.60
2022-12-26T05:44:19.453Z,0.70
2022-12-26T05:46:47.219Z,0.50
2022-12-26T05:49:14.932Z,0.52
2022-12-26T05:51:42.449Z,0.63
2022-12-26T05:54:10.183Z,0.50
2022-12-26T05:56:37.888Z,0.50
2022-12-26T05:59:06.442Z,0.80
2022-12-26T06:01:33.920Z,0.75
2022-12-26T06:04:01.588Z,0.45
2022-12-26T06:06:29.832Z,0.60
2022-12-26T06:08:58.430Z,0.50
2022-12-26T06:11:27.608Z,0.75
2022-12-26T06:13:55.966Z,1.02
2022-12-26T06:16:24.277Z,1.50
2022-12-26T06:18:51.936Z,1.20
2022-12-26T06:21:21.415Z,0.50
2022-12-26T06:23:49.897Z,1.10
2022-12-26T06:26:17.880Z,1.00
2022-12-26T06:28:46.778Z,0.80
2022-12-26T06:31:21.163Z,0.80
2022-12-26T06:33:58.416Z,0.80
2022-12-26T06:36:28.471Z,0.80
2022-12-26T06:38:58.064Z,0.70
2022-12-26T06:41:25.995Z,0.60
2022-12-26T06:43:56.139Z,0.68
2022-12-26T06:46:25.610Z,0.90
2022-12-26T06:48:54.346Z,1.42
2022-12-26T06:51:25.526Z,0.60
2022-12-26T06:53:53.849Z,0.70
2022-12-26T06:56:28.720Z,0.65
2022-12-26T07:01:26.898Z,0.90
2022-12-26T07:03:56.177Z,0.65
2022-12-26T07:06:27.773Z,0.90
2022-12-26T07:09:13.280Z,0.60
2022-12-26T07:11:44.720Z,0.60
2022-12-26T07:14:12.731Z,0.82
2022-12-26T07:16:43.284Z,0.60
2022-12-26T07:19:13.084Z,0.65
2022-12-26T07:21:41.413Z,0.80
2022-12-26T07:24:27.140Z,0.75
2022-12-26T07:26:54.567Z,0.82
2022-12-26T07:29:22.762Z,0.57
2022-12-26T07:31:50.306Z,0.70
2022-12-26T07:34:17.736Z,0.70
2022-12-26T07:36:45.282Z,0.70
2022-12-26T07:39:14.681Z,0.77
2022-12-26T07:42:02.328Z,0.60
2022-12-26T07:44:32.578Z,0.60
2022-12-26T07:47:01.478Z,1.00
2022-12-26T07:49:29.111Z,0.70
2022-12-26T07:51:57.277Z,0.60
2022-12-26T07:54:24.984Z,0.65
2022-12-26T07:56:52.436Z,0.88
2022-12-26T07:59:19.989Z,0.93
2022-12-26T08:01:47.787Z,0.70
2022-12-26T08:04:15.546Z,0.73
2022-12-26T08:06:43.125Z,0.60
2022-12-26T08:09:16.314Z,0.80
2022-12-26T08:11:44.589Z,0.70
2022-12-26T08:14:14.094Z,0.70
2022-12-26T08:16:41.577Z,0.85
2022-12-26T08:19:10.116Z,0.77
2022-12-26T08:21:37.870Z,0.73
2022-12-26T08:24:07.779Z,0.70
2022-12-26T08:26:35.359Z,0.70
2022-12-26T08:29:02.883Z,0.50
2022-12-26T08:31:30.347Z,0.60
2022-12-26T08:33:57.950Z,0.80
2022-12-26T08:36:25.729Z,0.65
2022-12-26T08:38:53.831Z,0.60
2022-12-26T08:41:21.471Z,0.60
2022-12-26T08:46:39.220Z,0.93
2022-12-26T08:49:06.929Z,0.60
2022-12-26T08:51:34.390Z,0.60
2022-12-26T08:54:02.093Z,0.88
2022-12-26T08:56:29.700Z,0.52
2022-12-26T08:58:57.356Z,0.73
2022-12-26T09:01:30.663Z,0.77
2022-12-26T09:04:03.876Z,0.82
2022-12-26T09:06:36.933Z,0.50
2022-12-26T09:09:06.367Z,0.55
2022-12-26T09:11:34.413Z,0.63
2022-12-26T09:14:03.530Z,0.65
2022-12-26T09:16:49.144Z,0.80
2022-12-26T09:19:18.724Z,0.80
2022-12-26T09:21:47.780Z,1.02
2022-12-26T09:24:18.355Z,1.20
2022-12-26T09:26:46.439Z,0.80
2022-12-26T09:29:14.374Z,1.25
2022-12-26T09:31:42.404Z,0.70
2022-12-26T09:34:09.969Z,1.65
2022-12-26T09:36:39.173Z,0.98
2022-12-26T09:39:07.707Z,1.05
2022-12-26T09:42:05.749Z,1.33
2022-12-26T09:44:39.223Z,1.73
2022-12-26T09:47:34.097Z,1.52
2022-12-26T09:50:31.447Z,1.52
2022-12-26T09:53:12.642Z,1.77
2022-12-26T09:56:01.438Z,1.65
2022-12-26T09:58:42.172Z,1.85
2022-12-26T10:01:15.894Z,1.88
2022-12-26T10:03:50.351Z,1.65
2022-12-26T10:06:24.490Z,1.70
2022-12-26T10:09:19.926Z,1.25
2022-12-26T10:12:05.950Z,1.58
2022-12-26T10:15:27.354Z,1.90
2022-12-26T10:18:22.126Z,1.90
2022-12-26T10:21:37.300Z,2.07
2022-12-26T10:24:16.735Z,2.22
2022-12-26T10:26:57.437Z,1.35
2022-12-26T10:29:38.199Z,1.83
2022-12-26T10:32:27.488Z,1.92
2022-12-26T10:34:55.655Z,1.70
2022-12-26T10:37:40.879Z,1.73
2022-12-26T10:40:43.277Z,1.80
2022-12-26T10:43:22.941Z,1.92
2022-12-26T10:46:02.419Z,1.67
2022-12-26T10:48:30.211Z,1.70
2022-12-26T10:50:58.272Z,1.73
2022-12-26T10:53:25.686Z,1.50
2022-12-26T10:55:53.140Z,1.55
2022-12-26T10:58:32.187Z,1.60
2022-12-26T11:01:40.301Z,1.73
2022-12-26T11:04:53.153Z,1.85
2022-12-26T11:07:13.501Z,1.58
2022-12-26T11:09:46.032Z,2.08
2022-12-26T11:12:50.423Z,1.60
2022-12-26T11:15:39.920Z,2.00
2022-12-26T11:18:40.653Z,2.20
2022-12-26T11:21:26.577Z,1.88
2022-12-26T11:24:10.763Z,2.05
2022-12-26T11:26:39.325Z,2.80
2022-12-26T11:29:20.805Z,2.47
2022-12-26T11:32:01.920Z,2.75
2022-12-26T11:34:38.489Z,2.92
2022-12-26T11:37:07.926Z,3.00
2022-12-26T11:39:40.034Z,1.95
2022-12-26T11:42:12.570Z,2.20
2022-12-26T11:44:45.719Z,1.83
2022-12-26T11:47:17.528Z,1.80
2022-12-26T11:50:01.066Z,2.53
2022-12-26T11:52:53.221Z,2.20
2022-12-26T11:55:44.040Z,2.58
2022-12-26T11:58:19.510Z,1.83
2022-12-26T12:00:58.820Z,1.52
2022-12-26T12:03:47.157Z,2.10
2022-12-26T12:07:01.284Z,1.63
2022-12-26T12:09:59.505Z,2.40
2022-12-26T12:12:48.822Z,1.58
2022-12-26T12:15:56.197Z,2.00
2022-12-26T12:19:06.722Z,1.65
2022-12-26T12:21:48.485Z,1.45
2022-12-26T12:24:26.047Z,1.58
2022-12-26T12:27:37.536Z,1.50
2022-12-26T12:30:24.759Z,1.50
2022-12-26T12:33:16.867Z,1.40
2022-12-26T12:36:14.942Z,1.52
2022-12-26T12:38:45.471Z,1.55
2022-12-26T12:41:42.803Z,1.25
2022-12-26T12:44:28.550Z,1.45
2022-12-26T12:47:19.115Z,1.20
2022-12-26T12:50:30.927Z,1.13
2022-12-26T12:53:26.291Z,0.85
2022-12-26T12:56:02.281Z,1.17
2022-12-26T12:59:02.585Z,1.30
2022-12-26T13:01:47.426Z,1.10
2022-12-26T13:04:21.937Z,1.35
2022-12-26T13:06:58.972Z,1.05
2022-12-26T13:09:37.637Z,1.23
2022-12-26T13:12:09.536Z,1.00
2022-12-26T13:14:59.940Z,0.90
2022-12-26T13:17:46.601Z,1.15
2022-12-26T13:20:25.985Z,0.80
2022-12-26T13:23:25.039Z,0.90
2022-12-26T13:26:13.889Z,1.00
2022-12-26T13:29:06.630Z,0.65
2022-12-26T13:31:39.948Z,0.93
2022-12-26T13:34:16.959Z,0.68
2022-12-26T13:36:51.464Z,0.75
2022-12-26T13:39:27.685Z,1.23
2022-12-26T13:42:30.051Z,1.05
2022-12-26T13:45:35.902Z,1.10
2022-12-26T13:48:27.567Z,0.60
2022-12-26T13:51:04.439Z,0.70
2022-12-26T13:53:45.389Z,0.80
2022-12-26T13:56:45.815Z,0.70
2022-12-26T14:00:04.285Z,0.82
2022-12-26T14:03:22.573Z,0.70
2022-12-26T14:06:10.698Z,0.70
2022-12-26T14:09:21.538Z,0.63
2022-12-26T14:12:11.352Z,1.13
2022-12-26T14:15:20.943Z,0.90
2022-12-26T14:18:03.343Z,1.05
2022-12-26T14:20:53.410Z,1.00
2022-12-26T14:23:57.342Z,0.82
2022-12-26T14:26:49.676Z,0.80
2022-12-26T14:29:47.015Z,1.13
2022-12-26T14:32:48.273Z,1.55
2022-12-26T14:35:34.230Z,1.23
2022-12-26T14:38:09.767Z,1.42
2022-12-26T14:40:39.379Z,1.92
2022-12-26T14:43:26.925Z,1.10
2022-12-26T14:45:55.186Z,1.13
2022-12-26T14:48:22.641Z,0.80
2022-12-26T14:51:04.390Z,1.80
2022-12-26T14:54:17.151Z,1.70
2022-12-26T14:56:44.920Z,0.88
2022-12-26T14:59:32.780Z,1.30
2022-12-26T15:02:30.064Z,1.45
2022-12-26T15:05:26.986Z,1.17
2022-12-26T15:08:35.403Z,1.20
2022-12-26T15:11:27.462Z,1.33
2022-12-26T15:14:31.291Z,2.65
2022-12-26T15:17:35.649Z,3.72
2022-12-26T15:20:12.959Z,2.70
2022-12-26T15:23:26.674Z,2.78
2022-12-26T15:26:20.635Z,2.35
2022-12-26T15:29:30.694Z,2.38
2022-12-26T15:32:43.617Z,2.40
2022-12-26T15:35:22.046Z,2.05
2022-12-26T15:38:29.058Z,1.63
2022-12-26T15:41:23.502Z,2.28
2022-12-26T15:44:18.673Z,1.77
2022-12-26T15:47:22.010Z,2.05
2022-12-26T15:50:29.489Z,1.60
2022-12-26T15:53:21.126Z,1.50
2022-12-26T15:56:07.307Z,1.30
2022-12-26T15:59:20.803Z,1.45
2022-12-26T16:01:53.422Z,1.30
2022-12-26T16:04:31.514Z,1.67
2022-12-26T16:07:26.277Z,1.60
2022-12-26T16:09:56.471Z,1.70
2022-12-26T16:12:35.565Z,1.42
2022-12-26T16:15:12.323Z,1.55
2022-12-26T16:17:44.164Z,1.33
2022-12-26T16:20:50.687Z,1.23
2022-12-26T16:23:26.424Z,1.38
2022-12-26T16:25:56.870Z,2.03
2022-12-26T16:28:31.660Z,1.85
2022-12-26T16:31:00.117Z,1.83
2022-12-26T16:33:43.245Z,1.90
2022-12-26T16:36:27.086Z,2.40
2022-12-26T16:38:55.898Z,2.28
2022-12-26T16:41:32.961Z,1.98
2022-12-26T16:44:36.032Z,2.65
2022-12-26T16:47:12.141Z,2.60
2022-12-26T16:49:41.876Z,2.35
2022-12-26T16:52:43.936Z,2.10
2022-12-26T16:55:32.346Z,2.08
2022-12-26T16:58:11.510Z,2.08
2022-12-26T17:00:39.257Z,2.03
2022-12-26T17:03:15.994Z,2.33
2022-12-26T17:05:47.793Z,1.83
2022-12-26T17:08:16.373Z,1.95
2022-12-26T17:10:49.728Z,1.90
2022-12-26T17:13:26.354Z,2.05
2022-12-26T17:15:58.102Z,1.85
2022-12-26T17:19:12.120Z,2.13
2022-12-26T17:21:39.617Z,2.20
2022-12-26T17:24:10.108Z,1.52
2022-12-26T17:26:40.355Z,1.67
2022-12-26T17:29:48.253Z,2.03
2022-12-26T17:32:46.407Z,2.15
2022-12-26T17:35:23.767Z,1.83
2022-12-26T17:37:57.921Z,2.85
2022-12-26T17:40:34.607Z,2.23
2022-12-26T17:43:21.219Z,1.85
2022-12-26T17:45:49.091Z,1.30
2022-12-26T17:48:17.061Z,2.05
2022-12-26T17:50:49.473Z,1.80
2022-12-26T17:53:30.562Z,2.33
2022-12-26T17:56:05.748Z,1.70
2022-12-26T17:58:34.629Z,1.80
2022-12-26T18:01:03.054Z,1.92
2022-12-26T18:03:30.552Z,2.20
2022-12-26T18:05:58.475Z,2.20
2022-12-26T18:08:37.204Z,1.95
2022-12-26T18:11:09.300Z,1.77
2022-12-26T18:13:37.681Z,2.10
2022-12-26T18:16:06.491Z,1.92
2022-12-26T18:18:41.185Z,1.75
2022-12-26T18:21:13.427Z,2.20
2022-12-26T18:23:41.519Z,1.90
2022-12-26T18:26:29.597Z,2.20
2022-12-26T18:28:57.978Z,1.73
2022-12-26T18:31:29.244Z,1.83
2022-12-26T18:33:56.773Z,1.40
2022-12-26T18:36:33.373Z,1.70
2022-12-26T18:39:00.995Z,2.42
2022-12-26T18:41:28.496Z,1.55
2022-12-26T18:43:57.700Z,2.17
2022-12-26T18:46:27.475Z,2.63
2022-12-26T18:48:56.962Z,2.38
2022-12-26T18:51:26.060Z,2.53
2022-12-26T18:53:54.182Z,2.45
2022-12-26T18:56:23.642Z,2.35
2022-12-26T18:58:57.529Z,3.17
2022-12-26T19:01:26.980Z,2.97
2022-12-26T19:03:58.449Z,2.65
2022-12-26T19:06:29.515Z,2.78
2022-12-26T19:08:58.756Z,3.63
2022-12-26T19:11:26.322Z,3.40
2022-12-26T19:13:54.273Z,3.83
2022-12-26T19:16:24.501Z,3.42
2022-12-26T19:18:52.338Z,4.50
2022-12-26T19:21:19.790Z,4.18
2022-12-26T19:23:48.080Z,4.65
2022-12-26T19:26:19.020Z,4.53
2022-12-26T19:28:52.616Z,4.70
2022-12-26T19:31:20.714Z,4.18
2022-12-26T19:33:48.448Z,5.63
2022-12-26T19:36:17.512Z,11.95
2022-12-26T19:38:45.267Z,14.27
2022-12-26T19:41:15.581Z,8.10
2022-12-26T19:43:43.185Z,7.40
2022-12-26T19:46:15.795Z,7.03
2022-12-26T19:48:45.702Z,6.35
2022-12-26T19:51:16.042Z,6.70
2022-12-26T19:53:45.320Z,6.85
2022-12-26T19:56:23.060Z,6.60
2022-12-26T19:58:56.670Z,6.43
2022-12-26T20:01:32.601Z,5.47
2022-12-26T20:04:04.506Z,6.28
2022-12-26T20:06:35.312Z,6.07
2022-12-26T20:09:09.546Z,5.75
2022-12-26T20:11:44.636Z,5.78
2022-12-26T20:14:17.072Z,5.90
2022-12-26T20:19:32.411Z,4.80
2022-12-26T20:22:00.061Z,4.82
2022-12-26T20:24:28.396Z,5.00
2022-12-26T20:26:55.905Z,4.88
2022-12-26T20:29:23.882Z,4.43
2022-12-26T20:31:55.222Z,4.35
2022-12-26T20:34:22.823Z,5.10
2022-12-26T20:36:50.383Z,4.28
2022-12-26T20:39:20.060Z,4.40
2022-12-26T20:41:48.077Z,4.80
2022-12-26T20:44:17.558Z,4.85
2022-12-26T20:46:46.699Z,4.15
2022-12-26T20:49:14.665Z,3.58
2022-12-26T20:51:44.628Z,4.55
2022-12-26T20:54:14.674Z,4.43
2022-12-26T20:56:43.271Z,3.65
2022-12-26T20:59:10.982Z,3.35
2022-12-26T21:01:40.204Z,3.58
2022-12-26T21:04:08.915Z,4.20
2022-12-26T21:06:38.466Z,3.80
2022-12-26T21:09:07.014Z,3.90
2022-12-26T21:11:38.542Z,4.30
2022-12-26T21:14:21.012Z,3.85
2022-12-26T21:16:58.865Z,3.80
2022-12-26T21:19:29.571Z,3.55
2022-12-26T21:21:57.670Z,3.38
2022-12-26T21:24:29.409Z,3.22
2022-12-26T21:26:57.703Z,3.38
2022-12-26T21:29:31.721Z,3.60
2022-12-26T21:32:00.831Z,3.67
2022-12-26T21:34:32.105Z,3.47
2022-12-26T21:37:18.833Z,3.78
2022-12-26T21:39:47.316Z,3.53
2022-12-26T21:42:14.932Z,4.20
2022-12-26T21:44:42.489Z,3.05
2022-12-26T21:47:09.802Z,4.00
2022-12-26T21:49:37.951Z,4.10
2022-12-26T21:52:07.620Z,3.72
2022-12-26T21:54:53.905Z,3.53
2022-12-26T21:57:22.298Z,3.05
2022-12-26T21:59:56.299Z,3.90
2022-12-26T22:02:53.041Z,3.50
2022-12-26T22:05:25.056Z,3.30
2022-12-26T22:08:00.178Z,3.10
2022-12-26T22:10:50.828Z,3.13
2022-12-26T22:13:20.787Z,3.20
2022-12-26T22:16:04.562Z,2.80
2022-12-26T22:18:40.342Z,3.20
2022-12-26T22:21:18.418Z,3.10
2022-12-26T22:23:46.700Z,3.40
2022-12-26T22:26:16.070Z,3.35
2022-12-26T22:28:45.542Z,2.70
2022-12-26T22:31:23.326Z,2.75
2022-12-26T22:33:59.766Z,2.78
2022-12-26T22:36:29.596Z,2.80
2022-12-26T22:38:58.531Z,2.97
2022-12-26T22:41:27.405Z,2.67
2022-12-26T22:43:56.561Z,2.72
2022-12-26T22:46:24.686Z,2.92
2022-12-26T22:48:52.582Z,2.60
2022-12-26T22:51:24.326Z,3.10
2022-12-26T22:53:57.735Z,4.30
2022-12-26T22:56:25.875Z,5.97
2022-12-26T22:59:00.706Z,6.78
2022-12-26T23:01:29.231Z,7.93
2022-12-26T23:03:57.079Z,9.07
2022-12-26T23:06:29.902Z,9.38
2022-12-26T23:09:00.488Z,10.25
2022-12-26T23:11:35.120Z,10.98
2022-12-26T23:14:05.725Z,11.20
2022-12-26T23:16:38.095Z,11.93
2022-12-26T23:19:37.749Z,11.02
2022-12-26T23:22:05.902Z,12.23
2022-12-26T23:24:33.696Z,12.77
2022-12-26T23:27:37.761Z,11.90
2022-12-26T23:30:18.611Z,12.70
2022-12-26T23:32:51.010Z,11.43
2022-12-26T23:35:20.058Z,12.25
2022-12-26T23:37:47.549Z,11.85
2022-12-26T23:40:18.358Z,12.15
2022-12-26T23:42:46.280Z,11.18
2022-12-26T23:45:15.430Z,11.70
2022-12-26T23:47:45.163Z,9.60
2022-12-26T23:50:16.162Z,10.65
2022-12-26T23:52:44.695Z,10.52
2022-12-26T23:55:13.099Z,9.15
2022-12-26T23:57:40.773Z,8.10
